sensor_id;sensor_type;location;lat;lon;timestamp;pressure;altitude;pressure_sealevel;temperature;humidity
11525;BME280;5819;49.648;8.330;2023-02-11T00:02:16;102499.97;;;1.57;100.00
11525;BME280;5819;49.648;8.330;2023-02-11T00:04:44;102501.94;;;1.66;100.00
11525;BME280;5819;49.648;8.330;2023-02-11T00:07:11;102501.28;;;1.73;100.00
11525;BME280;5819;49.648;8.330;2023-02-11T00:09:39;102502.34;;;1.79;100.00
11525;BME280;5819;49.648;8.330;2023-02-11T00:12:07;102514.34;;;1.80;100.00
11525;BME280;5819;49.648;8.330;2023-02-11T00:14:35;102514.34;;;1.80;100.00
11525;BME280;5819;49.648;8.330;2023-02-11T00:17:05;102512.69;;;1.82;100.00
11525;BME280;5819;49.648;8.330;2023-02-11T00:19:33;102511.72;;;1.79;100.00
11525;BME280;5819;49.648;8.330;2023-02-11T00:22:01;102511.72;;;1.79;100.00
11525;BME280;5819;49.648;8.330;2023-02-11T00:24:28;102503.94;;;1.76;100.00
11525;BME280;5819;49.648;8.330;2023-02-11T00:26:57;102505.72;;;1.78;100.00
11525;BME280;5819;49.648;8.330;2023-02-11T00:29:27;102504.84;;;1.78;100.00
11525;BME280;5819;49.648;8.330;2023-02-11T00:31:57;102504.69;;;1.72;100.00
11525;BME280;5819;49.648;8.330;2023-02-11T00:34:35;102512.16;;;1.64;100.00
11525;BME280;5819;49.648;8.330;2023-02-11T00:37:05;102512.25;;;1.67;100.00
11525;BME280;5819;49.648;8.330;2023-02-11T00:39:36;102503.75;;;1.68;100.00
11525;BME280;5819;49.648;8.330;2023-02-11T00:42:15;102506.25;;;1.67;100.00
11525;BME280;5819;49.648;8.330;2023-02-11T00:44:45;102501.03;;;1.64;100.00
11525;BME280;5819;49.648;8.330;2023-02-11T00:47:16;102509.59;;;1.64;100.00
11525;BME280;5819;49.648;8.330;2023-02-11T00:49:46;102505.44;;;1.68;100.00
11525;BME280;5819;49.648;8.330;2023-02-11T00:52:16;102503.63;;;1.65;100.00
11525;BME280;5819;49.648;8.330;2023-02-11T00:54:45;102508.88;;;1.68;100.00
11525;BME280;5819;49.648;8.330;2023-02-11T00:57:13;102505.28;;;1.63;100.00
11525;BME280;5819;49.648;8.330;2023-02-11T00:59:41;102494.16;;;1.63;100.00
11525;BME280;5819;49.648;8.330;2023-02-11T01:02:09;102500.91;;;1.59;100.00
11525;BME280;5819;49.648;8.330;2023-02-11T01:04:36;102503.88;;;1.45;100.00
11525;BME280;5819;49.648;8.330;2023-02-11T01:07:07;102500.47;;;1.44;100.00
11525;BME280;5819;49.648;8.330;2023-02-11T01:09:36;102498.75;;;1.45;100.00
11525;BME280;5819;49.648;8.330;2023-02-11T01:12:05;102492.63;;;1.39;100.00
11525;BME280;5819;49.648;8.330;2023-02-11T01:14:32;102485.69;;;1.35;100.00
11525;BME280;5819;49.648;8.330;2023-02-11T01:17:00;102484.00;;;1.36;100.00
11525;BME280;5819;49.648;8.330;2023-02-11T01:19:28;102484.09;;;1.40;100.00
11525;BME280;5819;49.648;8.330;2023-02-11T01:21:56;102486.56;;;1.36;100.00
11525;BME280;5819;49.648;8.330;2023-02-11T01:24:25;102478.13;;;1.40;100.00
11525;BME280;5819;49.648;8.330;2023-02-11T01:26:53;102492.56;;;1.38;100.00
11525;BME280;5819;49.648;8.330;2023-02-11T01:29:22;102476.47;;;1.42;100.00
11525;BME280;5819;49.648;8.330;2023-02-11T01:31:53;102482.19;;;1.33;100.00
11525;BME280;5819;49.648;8.330;2023-02-11T01:34:20;102487.28;;;1.32;100.00
11525;BME280;5819;49.648;8.330;2023-02-11T01:36:48;102483.88;;;1.33;100.00
11525;BME280;5819;49.648;8.330;2023-02-11T01:39:16;102473.50;;;1.28;100.00
11525;BME280;5819;49.648;8.330;2023-02-11T01:41:46;102471.69;;;1.24;100.00
11525;BME280;5819;49.648;8.330;2023-02-11T01:44:25;102469.78;;;1.19;100.00
11525;BME280;5819;49.648;8.330;2023-02-11T01:46:54;102468.09;;;1.19;100.00
11525;BME280;5819;49.648;8.330;2023-02-11T01:49:25;102463.16;;;1.25;100.00
11525;BME280;5819;49.648;8.330;2023-02-11T01:51:56;102465.06;;;1.32;100.00
11525;BME280;5819;49.648;8.330;2023-02-11T01:54:28;102456.69;;;1.38;100.00
11525;BME280;5819;49.648;8.330;2023-02-11T01:57:26;102447.31;;;1.38;100.00
11525;BME280;5819;49.648;8.330;2023-02-11T02:00:09;102444.81;;;1.41;100.00
11525;BME280;5819;49.648;8.330;2023-02-11T02:02:45;102434.63;;;1.43;100.00
11525;BME280;5819;49.648;8.330;2023-02-11T02:05:21;102435.31;;;1.37;100.00
11525;BME280;5819;49.648;8.330;2023-02-11T02:07:55;102441.88;;;1.28;100.00
11525;BME280;5819;49.648;8.330;2023-02-11T02:10:26;102424.47;;;1.18;100.00
11525;BME280;5819;49.648;8.330;2023-02-11T02:12:56;102432.16;;;1.16;100.00
11525;BME280;5819;49.648;8.330;2023-02-11T02:15:27;102417.75;;;1.21;100.00
11525;BME280;5819;49.648;8.330;2023-02-11T02:18:02;102411.28;;;1.34;100.00
11525;BME280;5819;49.648;8.330;2023-02-11T02:21:12;102411.50;;;1.41;100.00
11525;BME280;5819;49.648;8.330;2023-02-11T02:24:06;102411.56;;;1.45;100.00
11525;BME280;5819;49.648;8.330;2023-02-11T02:26:57;102411.50;;;1.41;100.00
11525;BME280;5819;49.648;8.330;2023-02-11T02:29:54;102414.78;;;1.36;100.00
11525;BME280;5819;49.648;8.330;2023-02-11T02:32:38;102414.66;;;1.33;100.00
11525;BME280;5819;49.648;8.330;2023-02-11T02:35:17;102418.91;;;1.32;100.00
11525;BME280;5819;49.648;8.330;2023-02-11T02:37:49;102424.81;;;1.28;100.00
11525;BME280;5819;49.648;8.330;2023-02-11T02:40:20;102412.03;;;1.30;100.00
11525;BME280;5819;49.648;8.330;2023-02-11T02:42:50;102408.66;;;1.32;100.00
11525;BME280;5819;49.648;8.330;2023-02-11T02:45:19;102409.66;;;1.36;100.00
11525;BME280;5819;49.648;8.330;2023-02-11T02:47:49;102415.16;;;1.20;100.00
11525;BME280;5819;49.648;8.330;2023-02-11T02:50:22;102412.69;;;0.94;100.00
11525;BME280;5819;49.648;8.330;2023-02-11T02:53:01;102407.28;;;0.85;100.00
11525;BME280;5819;49.648;8.330;2023-02-11T02:55:41;102403.53;;;0.74;100.00
11525;BME280;5819;49.648;8.330;2023-02-11T02:58:26;102406.75;;;0.69;100.00
11525;BME280;5819;49.648;8.330;2023-02-11T03:01:05;102399.13;;;0.70;100.00
11525;BME280;5819;49.648;8.330;2023-02-11T03:03:42;102407.84;;;0.75;100.00
11525;BME280;5819;49.648;8.330;2023-02-11T03:06:16;102408.81;;;0.80;100.00
11525;BME280;5819;49.648;8.330;2023-02-11T03:08:52;102404.69;;;0.84;100.00
11525;BME280;5819;49.648;8.330;2023-02-11T03:11:23;102422.78;;;0.90;100.00
11525;BME280;5819;49.648;8.330;2023-02-11T03:13:51;102417.53;;;0.85;100.00
11525;BME280;5819;49.648;8.330;2023-02-11T03:16:24;102419.72;;;0.73;100.00
11525;BME280;5819;49.648;8.330;2023-02-11T03:18:59;102420.53;;;0.72;100.00
11525;BME280;5819;49.648;8.330;2023-02-11T03:21:30;102429.16;;;0.74;100.00
11525;BME280;5819;49.648;8.330;2023-02-11T03:24:02;102429.06;;;0.71;100.00
11525;BME280;5819;49.648;8.330;2023-02-11T03:26:36;102434.22;;;0.73;100.00
11525;BME280;5819;49.648;8.330;2023-02-11T03:29:09;102429.06;;;0.71;100.00
11525;BME280;5819;49.648;8.330;2023-02-11T03:31:46;102418.03;;;0.74;100.00
11525;BME280;5819;49.648;8.330;2023-02-11T03:34:24;102413.47;;;0.92;100.00
11525;BME280;5819;49.648;8.330;2023-02-11T03:36:56;102415.16;;;0.91;100.00
11525;BME280;5819;49.648;8.330;2023-02-11T03:39:29;102412.03;;;1.00;100.00
11525;BME280;5819;49.648;8.330;2023-02-11T03:42:02;102404.44;;;1.05;100.00
11525;BME280;5819;49.648;8.330;2023-02-11T03:44:34;102413.06;;;1.07;100.00
11525;BME280;5819;49.648;8.330;2023-02-11T03:47:06;102404.34;;;1.02;100.00
11525;BME280;5819;49.648;8.330;2023-02-11T03:49:39;102395.94;;;1.06;100.00
11525;BME280;5819;49.648;8.330;2023-02-11T03:52:08;102396.81;;;1.06;100.00
11525;BME280;5819;49.648;8.330;2023-02-11T03:54:40;102398.50;;;1.06;100.00
11525;BME280;5819;49.648;8.330;2023-02-11T03:57:09;102383.13;;;1.06;100.00
11525;BME280;5819;49.648;8.330;2023-02-11T03:59:51;102391.00;;;1.12;100.00
11525;BME280;5819;49.648;8.330;2023-02-11T04:02:20;102377.09;;;1.04;100.00
11525;BME280;5819;49.648;8.330;2023-02-11T04:04:50;102371.88;;;1.01;100.00
11525;BME280;5819;49.648;8.330;2023-02-11T04:07:17;102366.00;;;1.05;100.00
11525;BME280;5819;49.648;8.330;2023-02-11T04:09:46;102362.72;;;1.09;100.00
11525;BME280;5819;49.648;8.330;2023-02-11T04:12:13;102351.63;;;1.10;100.00
11525;BME280;5819;49.648;8.330;2023-02-11T04:14:41;102359.25;;;1.07;100.00
11525;BME280;5819;49.648;8.330;2023-02-11T04:17:09;102357.47;;;1.04;100.00
11525;BME280;5819;49.648;8.330;2023-02-11T04:19:37;102347.22;;;1.04;100.00
11525;BME280;5819;49.648;8.330;2023-02-11T04:22:06;102328.56;;;1.10;100.00
11525;BME280;5819;49.648;8.330;2023-02-11T04:24:34;102312.66;;;1.20;100.00
11525;BME280;5819;49.648;8.330;2023-02-11T04:27:02;102310.22;;;1.24;100.00
11525;BME280;5819;49.648;8.330;2023-02-11T04:29:30;102315.53;;;1.32;100.00
11525;BME280;5819;49.648;8.330;2023-02-11T04:31:58;102312.09;;;1.31;100.00
11525;BME280;5819;49.648;8.330;2023-02-11T04:34:26;102302.63;;;1.29;100.00
11525;BME280;5819;49.648;8.330;2023-02-11T04:36:54;102310.28;;;1.27;100.00
11525;BME280;5819;49.648;8.330;2023-02-11T04:39:23;102313.66;;;1.26;100.00
11525;BME280;5819;49.648;8.330;2023-02-11T04:41:51;102317.25;;;1.33;100.00
11525;BME280;5819;49.648;8.330;2023-02-11T04:44:19;102323.66;;;1.49;100.00
11525;BME280;5819;49.648;8.330;2023-02-11T04:46:47;102324.56;;;1.51;100.00
11525;BME280;5819;49.648;8.330;2023-02-11T04:49:15;102326.88;;;1.41;100.00
11525;BME280;5819;49.648;8.330;2023-02-11T04:51:43;102341.03;;;1.27;100.00
11525;BME280;5819;49.648;8.330;2023-02-11T04:54:15;102350.88;;;1.12;100.00
11525;BME280;5819;49.648;8.330;2023-02-11T04:56:44;102354.94;;;1.06;100.00
11525;BME280;5819;49.648;8.330;2023-02-11T04:59:12;102353.03;;;0.99;100.00
11525;BME280;5819;49.648;8.330;2023-02-11T05:01:40;102360.44;;;0.89;100.00
11525;BME280;5819;49.648;8.330;2023-02-11T05:04:08;102360.28;;;0.83;100.00
11525;BME280;5819;49.648;8.330;2023-02-11T05:06:37;102360.22;;;0.82;100.00
11525;BME280;5819;49.648;8.330;2023-02-11T05:09:05;102352.75;;;0.89;100.00
11525;BME280;5819;49.648;8.330;2023-02-11T05:11:33;102359.03;;;0.99;100.00
11525;BME280;5819;49.648;8.330;2023-02-11T05:14:03;102364.59;;;1.14;100.00
11525;BME280;5819;49.648;8.330;2023-02-11T05:16:31;102361.22;;;1.15;100.00
11525;BME280;5819;49.648;8.330;2023-02-11T05:18:59;102360.41;;;1.18;100.00
11525;BME280;5819;49.648;8.330;2023-02-11T05:21:27;102366.50;;;1.21;100.00
11525;BME280;5819;49.648;8.330;2023-02-11T05:23:55;102366.53;;;1.23;100.00
11525;BME280;5819;49.648;8.330;2023-02-11T05:26:23;102358.06;;;1.25;100.00
11525;BME280;5819;49.648;8.330;2023-02-11T05:28:51;102354.81;;;1.31;100.00
11525;BME280;5819;49.648;8.330;2023-02-11T05:31:20;102342.00;;;1.31;100.00
11525;BME280;5819;49.648;8.330;2023-02-11T05:33:48;102345.44;;;1.33;100.00
11525;BME280;5819;49.648;8.330;2023-02-11T05:36:15;102353.19;;;1.34;100.00
11525;BME280;5819;49.648;8.330;2023-02-11T05:38:43;102345.44;;;1.33;100.00
11525;BME280;5819;49.648;8.330;2023-02-11T05:41:11;102343.75;;;1.33;100.00
11525;BME280;5819;49.648;8.330;2023-02-11T05:43:39;102338.72;;;1.36;100.00
11525;BME280;5819;49.648;8.330;2023-02-11T05:46:07;102337.19;;;1.43;100.00
11525;BME280;5819;49.648;8.330;2023-02-11T05:48:36;102334.97;;;1.55;100.00
11525;BME280;5819;49.648;8.330;2023-02-11T05:51:04;102334.91;;;1.54;100.00
11525;BME280;5819;49.648;8.330;2023-02-11T05:53:32;102342.66;;;1.55;100.00
11525;BME280;5819;49.648;8.330;2023-02-11T05:56:00;102344.47;;;1.59;100.00
11525;BME280;5819;49.648;8.330;2023-02-11T05:58:28;102351.97;;;1.53;100.00
11525;BME280;5819;49.648;8.330;2023-02-11T06:00:56;102348.53;;;1.51;100.00
11525;BME280;5819;49.648;8.330;2023-02-11T06:03:24;102346.84;;;1.53;100.00
11525;BME280;5819;49.648;8.330;2023-02-11T06:05:53;102341.41;;;1.74;100.00
11525;BME280;5819;49.648;8.330;2023-02-11T06:08:21;102337.09;;;1.71;100.00
11525;BME280;5819;49.648;8.330;2023-02-11T06:10:48;102350.66;;;1.67;100.00
11525;BME280;5819;49.648;8.330;2023-02-11T06:13:16;102346.47;;;1.71;100.00
11525;BME280;5819;49.648;8.330;2023-02-11T06:15:54;102352.09;;;1.56;100.00
11525;BME280;5819;49.648;8.330;2023-02-11T06:18:22;102350.22;;;1.51;100.00
11525;BME280;5819;49.648;8.330;2023-02-11T06:20:50;102359.53;;;1.47;100.00
11525;BME280;5819;49.648;8.330;2023-02-11T06:23:19;102346.63;;;1.44;100.00
11525;BME280;5819;49.648;8.330;2023-02-11T06:25:47;102339.84;;;1.46;100.00
11525;BME280;5819;49.648;8.330;2023-02-11T06:28:15;102342.88;;;1.33;100.00
11525;BME280;5819;49.648;8.330;2023-02-11T06:30:43;102347.72;;;1.22;100.00
11525;BME280;5819;49.648;8.330;2023-02-11T06:33:11;102345.78;;;1.14;100.00
11525;BME280;5819;49.648;8.330;2023-02-11T06:35:40;102358.44;;;1.08;100.00
11525;BME280;5819;49.648;8.330;2023-02-11T06:38:08;102366.63;;;0.96;100.00
